sensor_id;sensor_type;location;lat;lon;timestamp;P1;durP1;ratioP1;P2;durP2;ratioP2
13560;SDS011;6852;51.686;5.314;2023-05-27T00:02:00;9.63;;;2.90;;
13560;SDS011;6852;51.686;5.314;2023-05-27T00:04:27;11.07;;;3.67;;
13560;SDS011;6852;51.686;5.314;2023-05-27T00:06:54;12.37;;;3.60;;
13560;SDS011;6852;51.686;5.314;2023-05-27T00:09:21;10.37;;;3.20;;
13560;SDS011;6852;51.686;5.314;2023-05-27T00:11:48;8.23;;;3.00;;
13560;SDS011;6852;51.686;5.314;2023-05-27T00:14:15;9.97;;;3.30;;
13560;SDS011;6852;51.686;5.314;2023-05-27T00:16:43;9.50;;;3.27;;
13560;SDS011;6852;51.686;5.314;2023-05-27T00:19:11;10.77;;;3.33;;
13560;SDS011;6852;51.686;5.314;2023-05-27T00:21:38;9.33;;;3.13;;
13560;SDS011;6852;51.686;5.314;2023-05-27T00:24:05;10.70;;;2.90;;
13560;SDS011;6852;51.686;5.314;2023-05-27T00:26:32;9.97;;;2.77;;
13560;SDS011;6852;51.686;5.314;2023-05-27T00:28:59;9.37;;;2.80;;
13560;SDS011;6852;51.686;5.314;2023-05-27T00:31:26;14.73;;;3.07;;
13560;SDS011;6852;51.686;5.314;2023-05-27T00:33:53;10.00;;;2.90;;
13560;SDS011;6852;51.686;5.314;2023-05-27T00:36:20;9.67;;;2.97;;
13560;SDS011;6852;51.686;5.314;2023-05-27T00:38:47;11.43;;;2.83;;
13560;SDS011;6852;51.686;5.314;2023-05-27T00:41:14;9.03;;;3.53;;
13560;SDS011;6852;51.686;5.314;2023-05-27T00:43:41;8.67;;;3.93;;
13560;SDS011;6852;51.686;5.314;2023-05-27T00:46:08;9.10;;;3.30;;
13560;SDS011;6852;51.686;5.314;2023-05-27T00:48:35;9.30;;;3.40;;
13560;SDS011;6852;51.686;5.314;2023-05-27T00:51:02;11.07;;;3.30;;
13560;SDS011;6852;51.686;5.314;2023-05-27T00:53:31;5.77;;;2.63;;
13560;SDS011;6852;51.686;5.314;2023-05-27T00:56:04;10.40;;;3.20;;
13560;SDS011;6852;51.686;5.314;2023-05-27T00:58:34;9.37;;;2.80;;
13560;SDS011;6852;51.686;5.314;2023-05-27T01:01:02;8.10;;;2.63;;
13560;SDS011;6852;51.686;5.314;2023-05-27T01:03:30;13.87;;;3.63;;
13560;SDS011;6852;51.686;5.314;2023-05-27T01:06:06;11.47;;;3.20;;
13560;SDS011;6852;51.686;5.314;2023-05-27T01:11:34;7.37;;;2.93;;
13560;SDS011;6852;51.686;5.314;2023-05-27T01:14:09;11.03;;;3.83;;
13560;SDS011;6852;51.686;5.314;2023-05-27T01:16:38;12.87;;;3.43;;
13560;SDS011;6852;51.686;5.314;2023-05-27T01:19:07;9.40;;;3.30;;
13560;SDS011;6852;51.686;5.314;2023-05-27T01:21:41;10.17;;;2.73;;
13560;SDS011;6852;51.686;5.314;2023-05-27T01:24:12;5.77;;;2.70;;
13560;SDS011;6852;51.686;5.314;2023-05-27T01:26:39;11.43;;;2.97;;
13560;SDS011;6852;51.686;5.314;2023-05-27T01:29:06;10.67;;;3.70;;
13560;SDS011;6852;51.686;5.314;2023-05-27T01:31:46;11.90;;;3.60;;
13560;SDS011;6852;51.686;5.314;2023-05-27T01:34:18;9.07;;;3.33;;
13560;SDS011;6852;51.686;5.314;2023-05-27T01:36:51;10.07;;;3.40;;
13560;SDS011;6852;51.686;5.314;2023-05-27T01:39:23;9.83;;;3.30;;
13560;SDS011;6852;51.686;5.314;2023-05-27T01:41:52;12.17;;;3.53;;
13560;SDS011;6852;51.686;5.314;2023-05-27T01:44:20;9.00;;;3.33;;
13560;SDS011;6852;51.686;5.314;2023-05-27T01:46:48;10.33;;;3.50;;
13560;SDS011;6852;51.686;5.314;2023-05-27T01:49:15;8.50;;;3.07;;
13560;SDS011;6852;51.686;5.314;2023-05-27T01:51:42;7.40;;;3.20;;
13560;SDS011;6852;51.686;5.314;2023-05-27T01:54:09;8.93;;;3.13;;
13560;SDS011;6852;51.686;5.314;2023-05-27T01:56:36;9.97;;;3.37;;
13560;SDS011;6852;51.686;5.314;2023-05-27T01:59:03;12.07;;;4.23;;
13560;SDS011;6852;51.686;5.314;2023-05-27T02:01:30;8.97;;;3.23;;
13560;SDS011;6852;51.686;5.314;2023-05-27T02:04:00;10.27;;;3.10;;
13560;SDS011;6852;51.686;5.314;2023-05-27T02:06:27;14.50;;;3.47;;
13560;SDS011;6852;51.686;5.314;2023-05-27T02:08:54;7.43;;;3.10;;
13560;SDS011;6852;51.686;5.314;2023-05-27T02:11:21;13.93;;;3.33;;
13560;SDS011;6852;51.686;5.314;2023-05-27T02:13:48;9.70;;;3.23;;
13560;SDS011;6852;51.686;5.314;2023-05-27T02:16:15;10.20;;;3.73;;
13560;SDS011;6852;51.686;5.314;2023-05-27T02:18:42;13.17;;;3.37;;
13560;SDS011;6852;51.686;5.314;2023-05-27T02:21:09;11.00;;;3.47;;
13560;SDS011;6852;51.686;5.314;2023-05-27T02:23:36;10.13;;;3.80;;
13560;SDS011;6852;51.686;5.314;2023-05-27T02:26:03;9.37;;;3.37;;
13560;SDS011;6852;51.686;5.314;2023-05-27T02:28:30;12.03;;;3.67;;
13560;SDS011;6852;51.686;5.314;2023-05-27T02:30:57;12.73;;;3.37;;
13560;SDS011;6852;51.686;5.314;2023-05-27T02:33:25;9.33;;;3.10;;
13560;SDS011;6852;51.686;5.314;2023-05-27T02:35:52;12.23;;;3.47;;
13560;SDS011;6852;51.686;5.314;2023-05-27T02:38:19;10.43;;;3.13;;
13560;SDS011;6852;51.686;5.314;2023-05-27T02:40:46;6.73;;;3.60;;
13560;SDS011;6852;51.686;5.314;2023-05-27T02:43:13;8.33;;;2.93;;
13560;SDS011;6852;51.686;5.314;2023-05-27T02:45:40;8.23;;;3.53;;
13560;SDS011;6852;51.686;5.314;2023-05-27T02:48:07;10.30;;;3.47;;
13560;SDS011;6852;51.686;5.314;2023-05-27T02:50:34;7.50;;;3.63;;
13560;SDS011;6852;51.686;5.314;2023-05-27T02:53:01;12.63;;;3.73;;
13560;SDS011;6852;51.686;5.314;2023-05-27T02:55:28;10.80;;;3.60;;
13560;SDS011;6852;51.686;5.314;2023-05-27T02:57:55;10.60;;;3.43;;
13560;SDS011;6852;51.686;5.314;2023-05-27T03:00:22;13.10;;;3.57;;
13560;SDS011;6852;51.686;5.314;2023-05-27T03:02:49;12.40;;;3.23;;
13560;SDS011;6852;51.686;5.314;2023-05-27T03:05:16;10.43;;;3.50;;
13560;SDS011;6852;51.686;5.314;2023-05-27T03:07:43;9.13;;;3.50;;
13560;SDS011;6852;51.686;5.314;2023-05-27T03:10:10;10.97;;;3.87;;
13560;SDS011;6852;51.686;5.314;2023-05-27T03:12:37;11.00;;;3.40;;
13560;SDS011;6852;51.686;5.314;2023-05-27T03:15:04;13.63;;;4.23;;
13560;SDS011;6852;51.686;5.314;2023-05-27T03:17:32;9.13;;;3.53;;
13560;SDS011;6852;51.686;5.314;2023-05-27T03:20:02;9.77;;;4.07;;
13560;SDS011;6852;51.686;5.314;2023-05-27T03:22:30;12.93;;;3.50;;
13560;SDS011;6852;51.686;5.314;2023-05-27T03:24:57;12.10;;;3.37;;
13560;SDS011;6852;51.686;5.314;2023-05-27T03:27:24;13.33;;;4.03;;
13560;SDS011;6852;51.686;5.314;2023-05-27T03:29:51;9.97;;;3.70;;
13560;SDS011;6852;51.686;5.314;2023-05-27T03:32:18;9.57;;;3.60;;
13560;SDS011;6852;51.686;5.314;2023-05-27T03:34:45;9.70;;;3.90;;
13560;SDS011;6852;51.686;5.314;2023-05-27T03:37:11;7.40;;;3.10;;
13560;SDS011;6852;51.686;5.314;2023-05-27T03:39:40;12.70;;;3.73;;
13560;SDS011;6852;51.686;5.314;2023-05-27T03:42:07;10.00;;;3.50;;
13560;SDS011;6852;51.686;5.314;2023-05-27T03:44:34;9.70;;;3.17;;
13560;SDS011;6852;51.686;5.314;2023-05-27T03:47:01;8.23;;;3.43;;
13560;SDS011;6852;51.686;5.314;2023-05-27T03:49:28;13.70;;;3.87;;
13560;SDS011;6852;51.686;5.314;2023-05-27T03:51:55;12.33;;;3.87;;
13560;SDS011;6852;51.686;5.314;2023-05-27T03:54:22;9.60;;;3.90;;
13560;SDS011;6852;51.686;5.314;2023-05-27T03:56:49;9.80;;;3.70;;
13560;SDS011;6852;51.686;5.314;2023-05-27T03:59:17;6.13;;;3.37;;
13560;SDS011;6852;51.686;5.314;2023-05-27T04:01:44;10.13;;;3.63;;
13560;SDS011;6852;51.686;5.314;2023-05-27T04:04:11;11.93;;;4.03;;
13560;SDS011;6852;51.686;5.314;2023-05-27T04:06:38;11.87;;;4.17;;
13560;SDS011;6852;51.686;5.314;2023-05-27T04:09:05;14.27;;;4.23;;
13560;SDS011;6852;51.686;5.314;2023-05-27T04:11:32;11.03;;;3.93;;
13560;SDS011;6852;51.686;5.314;2023-05-27T04:13:58;13.10;;;4.13;;
13560;SDS011;6852;51.686;5.314;2023-05-27T04:16:25;11.43;;;4.03;;
13560;SDS011;6852;51.686;5.314;2023-05-27T04:18:52;11.63;;;3.90;;
13560;SDS011;6852;51.686;5.314;2023-05-27T04:21:19;9.33;;;3.23;;
13560;SDS011;6852;51.686;5.314;2023-05-27T04:23:46;14.30;;;4.00;;
13560;SDS011;6852;51.686;5.314;2023-05-27T04:26:14;9.77;;;3.70;;
13560;SDS011;6852;51.686;5.314;2023-05-27T04:28:41;16.37;;;5.10;;
13560;SDS011;6852;51.686;5.314;2023-05-27T04:31:11;13.17;;;4.77;;
13560;SDS011;6852;51.686;5.314;2023-05-27T04:33:39;10.43;;;4.07;;
13560;SDS011;6852;51.686;5.314;2023-05-27T04:36:06;14.83;;;3.97;;
13560;SDS011;6852;51.686;5.314;2023-05-27T04:38:33;11.53;;;3.87;;
13560;SDS011;6852;51.686;5.314;2023-05-27T04:41:00;8.53;;;3.47;;
13560;SDS011;6852;51.686;5.314;2023-05-27T04:43:28;12.73;;;5.13;;
13560;SDS011;6852;51.686;5.314;2023-05-27T04:45:56;12.33;;;3.93;;
13560;SDS011;6852;51.686;5.314;2023-05-27T04:48:26;10.03;;;3.50;;
13560;SDS011;6852;51.686;5.314;2023-05-27T04:50:53;12.53;;;4.07;;
13560;SDS011;6852;51.686;5.314;2023-05-27T04:53:20;13.00;;;3.30;;
13560;SDS011;6852;51.686;5.314;2023-05-27T04:55:47;14.17;;;4.47;;
13560;SDS011;6852;51.686;5.314;2023-05-27T04:58:15;13.17;;;3.90;;
13560;SDS011;6852;51.686;5.314;2023-05-27T05:00:42;11.70;;;4.67;;
13560;SDS011;6852;51.686;5.314;2023-05-27T05:03:20;11.17;;;4.23;;
13560;SDS011;6852;51.686;5.314;2023-05-27T05:05:49;12.40;;;4.30;;
13560;SDS011;6852;51.686;5.314;2023-05-27T05:08:20;7.43;;;3.50;;
13560;SDS011;6852;51.686;5.314;2023-05-27T05:10:47;12.97;;;4.53;;
13560;SDS011;6852;51.686;5.314;2023-05-27T05:13:15;11.77;;;4.43;;
13560;SDS011;6852;51.686;5.314;2023-05-27T05:15:42;10.53;;;4.57;;
13560;SDS011;6852;51.686;5.314;2023-05-27T05:18:10;8.30;;;4.33;;
13560;SDS011;6852;51.686;5.314;2023-05-27T05:20:37;10.03;;;4.33;;
13560;SDS011;6852;51.686;5.314;2023-05-27T05:23:04;10.67;;;4.20;;
13560;SDS011;6852;51.686;5.314;2023-05-27T05:25:35;9.43;;;3.97;;
13560;SDS011;6852;51.686;5.314;2023-05-27T05:28:04;8.13;;;3.33;;
13560;SDS011;6852;51.686;5.314;2023-05-27T05:30:31;10.40;;;4.30;;
13560;SDS011;6852;51.686;5.314;2023-05-27T05:32:58;12.83;;;3.63;;
13560;SDS011;6852;51.686;5.314;2023-05-27T05:35:25;14.03;;;4.20;;
13560;SDS011;6852;51.686;5.314;2023-05-27T05:37:52;12.23;;;4.33;;
13560;SDS011;6852;51.686;5.314;2023-05-27T05:40:21;15.10;;;4.10;;
13560;SDS011;6852;51.686;5.314;2023-05-27T05:42:48;9.27;;;4.03;;
13560;SDS011;6852;51.686;5.314;2023-05-27T05:45:15;10.53;;;3.83;;
13560;SDS011;6852;51.686;5.314;2023-05-27T05:47:42;13.23;;;4.23;;
13560;SDS011;6852;51.686;5.314;2023-05-27T05:50:09;13.33;;;4.17;;
13560;SDS011;6852;51.686;5.314;2023-05-27T05:52:36;11.87;;;4.10;;
13560;SDS011;6852;51.686;5.314;2023-05-27T05:55:03;12.57;;;4.33;;
13560;SDS011;6852;51.686;5.314;2023-05-27T05:57:32;12.33;;;3.93;;
13560;SDS011;6852;51.686;5.314;2023-05-27T06:00:01;9.27;;;4.27;;
13560;SDS011;6852;51.686;5.314;2023-05-27T06:02:29;14.20;;;4.93;;
13560;SDS011;6852;51.686;5.314;2023-05-27T06:04:56;11.27;;;3.87;;
13560;SDS011;6852;51.686;5.314;2023-05-27T06:07:23;12.83;;;4.07;;
13560;SDS011;6852;51.686;5.314;2023-05-27T06:09:50;12.57;;;4.10;;
13560;SDS011;6852;51.686;5.314;2023-05-27T06:12:17;11.67;;;3.80;;
13560;SDS011;6852;51.686;5.314;2023-05-27T06:14:44;10.53;;;4.00;;
13560;SDS011;6852;51.686;5.314;2023-05-27T06:17:12;15.53;;;4.20;;
13560;SDS011;6852;51.686;5.314;2023-05-27T06:19:39;11.40;;;3.80;;
13560;SDS011;6852;51.686;5.314;2023-05-27T06:22:06;7.90;;;3.33;;
13560;SDS011;6852;51.686;5.314;2023-05-27T06:24:33;13.80;;;4.30;;
13560;SDS011;6852;51.686;5.314;2023-05-27T06:27:00;10.70;;;4.00;;
13560;SDS011;6852;51.686;5.314;2023-05-27T06:29:28;12.27;;;4.03;;
13560;SDS011;6852;51.686;5.314;2023-05-27T06:31:55;11.77;;;4.20;;
13560;SDS011;6852;51.686;5.314;2023-05-27T06:34:22;12.03;;;4.77;;
13560;SDS011;6852;51.686;5.314;2023-05-27T06:36:49;12.13;;;3.70;;
13560;SDS011;6852;51.686;5.314;2023-05-27T06:39:16;11.33;;;3.97;;
13560;SDS011;6852;51.686;5.314;2023-05-27T06:41:43;9.07;;;3.50;;
13560;SDS011;6852;51.686;5.314;2023-05-27T06:44:10;13.37;;;4.27;;
13560;SDS011;6852;51.686;5.314;2023-05-27T06:46:37;9.97;;;3.50;;
13560;SDS011;6852;51.686;5.314;2023-05-27T06:49:04;9.37;;;3.63;;
13560;SDS011;6852;51.686;5.314;2023-05-27T06:51:31;9.87;;;4.17;;
13560;SDS011;6852;51.686;5.314;2023-05-27T06:53:58;14.67;;;4.53;;
13560;SDS011;6852;51.686;5.314;2023-05-27T06:56:25;10.47;;;3.30;;
13560;SDS011;6852;51.686;5.314;2023-05-27T06:58:54;12.90;;;4.10;;
13560;SDS011;6852;51.686;5.314;2023-05-27T07:01:21;13.90;;;4.20;;
13560;SDS011;6852;51.686;5.314;2023-05-27T07:03:47;11.13;;;3.90;;
13560;SDS011;6852;51.686;5.314;2023-05-27T07:06:15;8.80;;;3.27;;
13560;SDS011;6852;51.686;5.314;2023-05-27T07:08:43;16.23;;;4.53;;
13560;SDS011;6852;51.686;5.314;2023-05-27T07:11:09;10.77;;;4.23;;
13560;SDS011;6852;51.686;5.314;2023-05-27T07:13:36;14.57;;;4.30;;
13560;SDS011;6852;51.686;5.314;2023-05-27T07:16:03;10.33;;;3.57;;
13560;SDS011;6852;51.686;5.314;2023-05-27T07:18:31;9.10;;;3.47;;
13560;SDS011;6852;51.686;5.314;2023-05-27T07:20:58;10.13;;;3.63;;
13560;SDS011;6852;51.686;5.314;2023-05-27T07:23:25;12.07;;;3.67;;
13560;SDS011;6852;51.686;5.314;2023-05-27T07:25:52;12.90;;;4.00;;
13560;SDS011;6852;51.686;5.314;2023-05-27T07:28:20;12.70;;;4.27;;
13560;SDS011;6852;51.686;5.314;2023-05-27T07:30:47;7.40;;;3.73;;
13560;SDS011;6852;51.686;5.314;2023-05-27T07:33:14;10.37;;;3.83;;
13560;SDS011;6852;51.686;5.314;2023-05-27T07:35:41;9.07;;;4.20;;
13560;SDS011;6852;51.686;5.314;2023-05-27T07:38:08;13.27;;;3.90;;
13560;SDS011;6852;51.686;5.314;2023-05-27T07:40:35;9.07;;;4.37;;
13560;SDS011;6852;51.686;5.314;2023-05-27T07:43:02;12.03;;;4.23;;
13560;SDS011;6852;51.686;5.314;2023-05-27T07:45:29;11.97;;;4.17;;
13560;SDS011;6852;51.686;5.314;2023-05-27T07:47:57;12.50;;;4.20;;
13560;SDS011;6852;51.686;5.314;2023-05-27T07:50:24;12.10;;;4.30;;
13560;SDS011;6852;51.686;5.314;2023-05-27T07:52:51;11.50;;;4.63;;
13560;SDS011;6852;51.686;5.314;2023-05-27T07:55:18;11.50;;;3.97;;
13560;SDS011;6852;51.686;5.314;2023-05-27T07:57:45;14.47;;;5.00;;
13560;SDS011;6852;51.686;5.314;2023-05-27T08:00:12;12.60;;;4.57;;
13560;SDS011;6852;51.686;5.314;2023-05-27T08:02:39;11.17;;;4.30;;
13560;SDS011;6852;51.686;5.314;2023-05-27T08:05:06;9.73;;;4.83;;
13560;SDS011;6852;51.686;5.314;2023-05-27T08:07:33;10.90;;;4.47;;
13560;SDS011;6852;51.686;5.314;2023-05-27T08:10:00;12.90;;;4.50;;
13560;SDS011;6852;51.686;5.314;2023-05-27T08:12:27;10.10;;;4.63;;
13560;SDS011;6852;51.686;5.314;2023-05-27T08:14:53;13.43;;;5.40;;
13560;SDS011;6852;51.686;5.314;2023-05-27T08:17:21;14.17;;;4.77;;
13560;SDS011;6852;51.686;5.314;2023-05-27T08:19:48;14.10;;;4.70;;
13560;SDS011;6852;51.686;5.314;2023-05-27T08:22:14;12.00;;;4.70;;
13560;SDS011;6852;51.686;5.314;2023-05-27T08:24:42;14.97;;;4.97;;
13560;SDS011;6852;51.686;5.314;2023-05-27T08:27:15;9.57;;;4.40;;
13560;SDS011;6852;51.686;5.314;2023-05-27T08:29:44;10.07;;;4.80;;
13560;SDS011;6852;51.686;5.314;2023-05-27T08:32:11;12.67;;;4.67;;
13560;SDS011;6852;51.686;5.314;2023-05-27T08:34:38;10.83;;;5.07;;
13560;SDS011;6852;51.686;5.314;2023-05-27T08:37:05;15.97;;;5.10;;
13560;SDS011;6852;51.686;5.314;2023-05-27T08:39:32;10.50;;;4.17;;
13560;SDS011;6852;51.686;5.314;2023-05-27T08:41:59;9.77;;;5.53;;
13560;SDS011;6852;51.686;5.314;2023-05-27T08:44:28;11.90;;;4.87;;
13560;SDS011;6852;51.686;5.314;2023-05-27T08:46:55;9.80;;;4.70;;
13560;SDS011;6852;51.686;5.314;2023-05-27T08:49:22;11.67;;;5.30;;
13560;SDS011;6852;51.686;5.314;2023-05-27T08:51:49;10.70;;;5.00;;
13560;SDS011;6852;51.686;5.314;2023-05-27T08:54:20;14.47;;;5.07;;
13560;SDS011;6852;51.686;5.314;2023-05-27T08:56:47;12.23;;;4.80;;
13560;SDS011;6852;51.686;5.314;2023-05-27T08:59:17;12.20;;;4.93;;
13560;SDS011;6852;51.686;5.314;2023-05-27T09:01:44;12.17;;;5.27;;
13560;SDS011;6852;51.686;5.314;2023-05-27T09:04:11;10.90;;;4.70;;
13560;SDS011;6852;51.686;5.314;2023-05-27T09:06:38;12.83;;;5.57;;
13560;SDS011;6852;51.686;5.314;2023-05-27T09:09:06;27.53;;;5.67;;
13560;SDS011;6852;51.686;5.314;2023-05-27T09:11:38;14.30;;;4.77;;
13560;SDS011;6852;51.686;5.314;2023-05-27T09:14:19;12.17;;;5.37;;
13560;SDS011;6852;51.686;5.314;2023-05-27T09:16:46;18.77;;;5.50;;
13560;SDS011;6852;51.686;5.314;2023-05-27T09:19:17;11.03;;;4.30;;
13560;SDS011;6852;51.686;5.314;2023-05-27T09:21:45;14.50;;;6.00;;
13560;SDS011;6852;51.686;5.314;2023-05-27T09:24:12;11.30;;;4.77;;
13560;SDS011;6852;51.686;5.314;2023-05-27T09:26:39;13.70;;;5.30;;
13560;SDS011;6852;51.686;5.314;2023-05-27T09:29:07;13.87;;;5.70;;
13560;SDS011;6852;51.686;5.314;2023-05-27T09:31:38;14.17;;;5.87;;
13560;SDS011;6852;51.686;5.314;2023-05-27T09:34:13;12.57;;;5.40;;
13560;SDS011;6852;51.686;5.314;2023-05-27T09:36:44;15.97;;;4.87;;
13560;SDS011;6852;51.686;5.314;2023-05-27T09:39:14;9.97;;;4.97;;
13560;SDS011;6852;51.686;5.314;2023-05-27T09:41:42;11.40;;;4.90;;
13560;SDS011;6852;51.686;5.314;2023-05-27T09:44:09;13.67;;;5.00;;
13560;SDS011;6852;51.686;5.314;2023-05-27T09:46:36;12.37;;;5.13;;
13560;SDS011;6852;51.686;5.314;2023-05-27T09:49:03;10.57;;;5.47;;
13560;SDS011;6852;51.686;5.314;2023-05-27T09:51:31;12.37;;;5.30;;
13560;SDS011;6852;51.686;5.314;2023-05-27T09:53:58;11.97;;;5.43;;
13560;SDS011;6852;51.686;5.314;2023-05-27T09:56:26;11.63;;;5.03;;
13560;SDS011;6852;51.686;5.314;2023-05-27T09:58:56;11.87;;;4.70;;
13560;SDS011;6852;51.686;5.314;2023-05-27T10:01:28;15.57;;;5.40;;
13560;SDS011;6852;51.686;5.314;2023-05-27T10:03:56;15.67;;;5.13;;
13560;SDS011;6852;51.686;5.314;2023-05-27T10:06:25;10.53;;;4.80;;
13560;SDS011;6852;51.686;5.314;2023-05-27T10:08:52;13.87;;;5.40;;
13560;SDS011;6852;51.686;5.314;2023-05-27T10:11:19;13.10;;;5.23;;
13560;SDS011;6852;51.686;5.314;2023-05-27T10:13:47;16.97;;;5.00;;
13560;SDS011;6852;51.686;5.314;2023-05-27T10:16:22;13.23;;;5.40;;
13560;SDS011;6852;51.686;5.314;2023-05-27T10:18:55;14.00;;;4.97;;
13560;SDS011;6852;51.686;5.314;2023-05-27T10:21:27;10.33;;;4.30;;
13560;SDS011;6852;51.686;5.314;2023-05-27T10:23:58;12.80;;;5.30;;
13560;SDS011;6852;51.686;5.314;2023-05-27T10:29:06;11.77;;;4.63;;
13560;SDS011;6852;51.686;5.314;2023-05-27T10:31:48;10.90;;;4.90;;
13560;SDS011;6852;51.686;5.314;2023-05-27T10:34:19;16.40;;;5.43;;
13560;SDS011;6852;51.686;5.314;2023-05-27T10:36:46;9.83;;;4.53;;
13560;SDS011;6852;51.686;5.314;2023-05-27T10:39:23;13.40;;;4.87;;
13560;SDS011;6852;51.686;5.314;2023-05-27T10:41:54;12.67;;;5.03;;
13560;SDS011;6852;51.686;5.314;2023-05-27T10:44:33;12.67;;;5.17;;
13560;SDS011;6852;51.686;5.314;2023-05-27T10:47:02;13.20;;;4.70;;
13560;SDS011;6852;51.686;5.314;2023-05-27T10:49:38;8.43;;;4.33;;
13560;SDS011;6852;51.686;5.314;2023-05-27T10:52:09;14.87;;;5.07;;
13560;SDS011;6852;51.686;5.314;2023-05-27T10:54:40;10.93;;;4.67;;
13560;SDS011;6852;51.686;5.314;2023-05-27T10:57:14;14.97;;;4.77;;
13560;SDS011;6852;51.686;5.314;2023-05-27T10:59:53;10.63;;;4.43;;
13560;SDS011;6852;51.686;5.314;2023-05-27T11:02:28;16.03;;;4.67;;
13560;SDS011;6852;51.686;5.314;2023-05-27T11:05:01;13.07;;;4.60;;
13560;SDS011;6852;51.686;5.314;2023-05-27T11:07:36;11.17;;;5.00;;
13560;SDS011;6852;51.686;5.314;2023-05-27T11:10:05;11.20;;;5.10;;
13560;SDS011;6852;51.686;5.314;2023-05-27T11:12:33;13.87;;;6.10;;
13560;SDS011;6852;51.686;5.314;2023-05-27T11:15:01;10.70;;;4.37;;
13560;SDS011;6852;51.686;5.314;2023-05-27T11:17:28;12.93;;;4.43;;
13560;SDS011;6852;51.686;5.314;2023-05-27T11:19:56;12.77;;;4.40;;
13560;SDS011;6852;51.686;5.314;2023-05-27T11:22:25;15.53;;;4.10;;
13560;SDS011;6852;51.686;5.314;2023-05-27T11:24:58;21.03;;;5.13;;
13560;SDS011;6852;51.686;5.314;2023-05-27T11:27:37;13.13;;;5.17;;
13560;SDS011;6852;51.686;5.314;2023-05-27T11:30:09;15.83;;;5.20;;
13560;SDS011;6852;51.686;5.314;2023-05-27T11:32:39;12.40;;;5.70;;
13560;SDS011;6852;51.686;5.314;2023-05-27T11:35:13;11.30;;;5.10;;
13560;SDS011;6852;51.686;5.314;2023-05-27T11:37:41;11.57;;;4.83;;
13560;SDS011;6852;51.686;5.314;2023-05-27T11:40:20;13.37;;;4.80;;
13560;SDS011;6852;51.686;5.314;2023-05-27T11:42:47;11.87;;;4.30;;
13560;SDS011;6852;51.686;5.314;2023-05-27T11:45:18;10.43;;;4.70;;
13560;SDS011;6852;51.686;5.314;2023-05-27T11:47:46;12.07;;;4.77;;
13560;SDS011;6852;51.686;5.314;2023-05-27T11:50:17;10.97;;;4.47;;
13560;SDS011;6852;51.686;5.314;2023-05-27T11:55:19;10.73;;;4.00;;
13560;SDS011;6852;51.686;5.314;2023-05-27T11:57:47;7.77;;;3.87;;
13560;SDS011;6852;51.686;5.314;2023-05-27T12:00:15;8.60;;;4.47;;
13560;SDS011;6852;51.686;5.314;2023-05-27T12:02:42;7.03;;;3.80;;
13560;SDS011;6852;51.686;5.314;2023-05-27T12:05:09;8.97;;;3.60;;
13560;SDS011;6852;51.686;5.314;2023-05-27T12:07:51;7.57;;;4.00;;
13560;SDS011;6852;51.686;5.314;2023-05-27T12:10:18;8.80;;;3.87;;
13560;SDS011;6852;51.686;5.314;2023-05-27T12:12:44;8.17;;;3.23;;
13560;SDS011;6852;51.686;5.314;2023-05-27T12:15:11;7.63;;;3.57;;
13560;SDS011;6852;51.686;5.314;2023-05-27T12:17:38;8.53;;;3.60;;
13560;SDS011;6852;51.686;5.314;2023-05-27T12:20:05;11.37;;;4.03;;
13560;SDS011;6852;51.686;5.314;2023-05-27T12:22:34;10.10;;;3.57;;
13560;SDS011;6852;51.686;5.314;2023-05-27T12:25:01;10.50;;;3.63;;
13560;SDS011;6852;51.686;5.314;2023-05-27T12:27:31;12.37;;;4.07;;
13560;SDS011;6852;51.686;5.314;2023-05-27T12:29:58;15.43;;;4.30;;
13560;SDS011;6852;51.686;5.314;2023-05-27T12:32:25;12.60;;;4.67;;
13560;SDS011;6852;51.686;5.314;2023-05-27T12:34:52;10.60;;;3.83;;
13560;SDS011;6852;51.686;5.314;2023-05-27T12:37:19;12.03;;;5.00;;
13560;SDS011;6852;51.686;5.314;2023-05-27T12:39:49;11.27;;;4.67;;
13560;SDS011;6852;51.686;5.314;2023-05-27T12:42:17;9.87;;;4.13;;
13560;SDS011;6852;51.686;5.314;2023-05-27T12:44:44;13.23;;;4.60;;
13560;SDS011;6852;51.686;5.314;2023-05-27T12:47:12;10.83;;;3.50;;
13560;SDS011;6852;51.686;5.314;2023-05-27T12:49:39;8.73;;;3.10;;
13560;SDS011;6852;51.686;5.314;2023-05-27T12:52:08;11.10;;;3.93;;
13560;SDS011;6852;51.686;5.314;2023-05-27T12:54:35;8.27;;;4.00;;
13560;SDS011;6852;51.686;5.314;2023-05-27T12:57:02;11.93;;;4.67;;
13560;SDS011;6852;51.686;5.314;2023-05-27T12:59:31;10.33;;;3.70;;
13560;SDS011;6852;51.686;5.314;2023-05-27T13:01:59;11.80;;;3.67;;
13560;SDS011;6852;51.686;5.314;2023-05-27T13:04:27;9.90;;;3.67;;
13560;SDS011;6852;51.686;5.314;2023-05-27T13:06:54;7.33;;;3.23;;
13560;SDS011;6852;51.686;5.314;2023-05-27T13:09:21;9.30;;;3.50;;
13560;SDS011;6852;51.686;5.314;2023-05-27T13:11:48;10.47;;;3.80;;
13560;SDS011;6852;51.686;5.314;2023-05-27T13:14:15;12.17;;;4.10;;
13560;SDS011;6852;51.686;5.314;2023-05-27T13:16:41;10.50;;;3.60;;
13560;SDS011;6852;51.686;5.314;2023-05-27T13:19:08;8.07;;;3.40;;
13560;SDS011;6852;51.686;5.314;2023-05-27T13:21:35;11.30;;;3.60;;
13560;SDS011;6852;51.686;5.314;2023-05-27T13:24:05;7.37;;;3.30;;
13560;SDS011;6852;51.686;5.314;2023-05-27T13:26:32;7.90;;;3.60;;
13560;SDS011;6852;51.686;5.314;2023-05-27T13:29:00;10.23;;;4.30;;
13560;SDS011;6852;51.686;5.314;2023-05-27T13:31:27;9.07;;;3.20;;
13560;SDS011;6852;51.686;5.314;2023-05-27T13:33:54;10.17;;;3.33;;
13560;SDS011;6852;51.686;5.314;2023-05-27T13:36:21;9.03;;;3.33;;
13560;SDS011;6852;51.686;5.314;2023-05-27T13:38:48;11.23;;;3.53;;
13560;SDS011;6852;51.686;5.314;2023-05-27T13:41:15;9.70;;;3.83;;
13560;SDS011;6852;51.686;5.314;2023-05-27T13:43:42;11.73;;;3.97;;
13560;SDS011;6852;51.686;5.314;2023-05-27T13:46:09;8.20;;;3.73;;
13560;SDS011;6852;51.686;5.314;2023-05-27T13:48:36;10.67;;;3.97;;
13560;SDS011;6852;51.686;5.314;2023-05-27T13:51:03;7.27;;;3.50;;
13560;SDS011;6852;51.686;5.314;2023-05-27T13:53:31;9.17;;;3.60;;
13560;SDS011;6852;51.686;5.314;2023-05-27T13:55:58;12.27;;;3.87;;
13560;SDS011;6852;51.686;5.314;2023-05-27T13:58:25;7.73;;;3.27;;
13560;SDS011;6852;51.686;5.314;2023-05-27T14:00:52;7.53;;;3.27;;
13560;SDS011;6852;51.686;5.314;2023-05-27T14:03:20;7.10;;;3.47;;
13560;SDS011;6852;51.686;5.314;2023-05-27T14:05:47;8.30;;;3.80;;
13560;SDS011;6852;51.686;5.314;2023-05-27T14:08:16;7.37;;;3.60;;
13560;SDS011;6852;51.686;5.314;2023-05-27T14:10:43;12.57;;;3.93;;
13560;SDS011;6852;51.686;5.314;2023-05-27T14:13:10;5.07;;;3.20;;
13560;SDS011;6852;51.686;5.314;2023-05-27T14:15:37;8.17;;;3.70;;
13560;SDS011;6852;51.686;5.314;2023-05-27T14:18:04;8.73;;;3.90;;
13560;SDS011;6852;51.686;5.314;2023-05-27T14:20:33;10.53;;;3.77;;
13560;SDS011;6852;51.686;5.314;2023-05-27T14:23:00;8.40;;;3.57;;
13560;SDS011;6852;51.686;5.314;2023-05-27T14:25:29;9.27;;;3.70;;
13560;SDS011;6852;51.686;5.314;2023-05-27T14:27:56;7.73;;;3.50;;
13560;SDS011;6852;51.686;5.314;2023-05-27T14:30:27;10.23;;;4.00;;
13560;SDS011;6852;51.686;5.314;2023-05-27T14:32:56;8.07;;;3.30;;
13560;SDS011;6852;51.686;5.314;2023-05-27T14:35:28;9.10;;;3.57;;
13560;SDS011;6852;51.686;5.314;2023-05-27T14:37:55;9.60;;;3.10;;
13560;SDS011;6852;51.686;5.314;2023-05-27T14:40:22;7.03;;;3.37;;
13560;SDS011;6852;51.686;5.314;2023-05-27T14:42:49;7.03;;;3.43;;
13560;SDS011;6852;51.686;5.314;2023-05-27T14:45:15;6.63;;;3.53;;
13560;SDS011;6852;51.686;5.314;2023-05-27T14:47:45;7.23;;;2.83;;
13560;SDS011;6852;51.686;5.314;2023-05-27T14:50:12;7.30;;;3.20;;
13560;SDS011;6852;51.686;5.314;2023-05-27T14:52:39;6.00;;;3.77;;
13560;SDS011;6852;51.686;5.314;2023-05-27T14:55:06;9.90;;;3.53;;
13560;SDS011;6852;51.686;5.314;2023-05-27T14:57:33;6.13;;;3.23;;
13560;SDS011;6852;51.686;5.314;2023-05-27T15:00:04;10.60;;;3.67;;
13560;SDS011;6852;51.686;5.314;2023-05-27T15:02:34;9.00;;;4.37;;
13560;SDS011;6852;51.686;5.314;2023-05-27T15:05:02;7.03;;;3.80;;
13560;SDS011;6852;51.686;5.314;2023-05-27T15:07:31;9.83;;;4.33;;